createdAt,value
2022-12-11T00:01:45.541Z,101124.01999999999
2022-12-11T00:04:15.540Z,101125.33
2022-12-11T00:06:45.280Z,101118.86
2022-12-11T00:09:16.211Z,101118.22
2022-12-11T00:11:45.946Z,101112.92
2022-12-11T00:14:15.788Z,101110.08
2022-12-11T00:16:47.960Z,101110.56999999999
2022-12-11T00:19:15.557Z,101107.23000000001
2022-12-11T00:21:46.212Z,101104.96
2022-12-11T00:26:45.478Z,101098.94
2022-12-11T00:29:15.456Z,101098.05
2022-12-11T00:34:15.550Z,101100.47
2022-12-11T00:36:45.341Z,101098.43
2022-12-11T00:39:15.321Z,101100.44
2022-12-11T00:41:45.512Z,101100.89
2022-12-11T00:44:15.445Z,101102.78
2022-12-11T00:46:45.345Z,101108.12
2022-12-11T00:49:15.503Z,101108.47
2022-12-11T00:51:45.336Z,101109.09
2022-12-11T00:54:15.400Z,101110.96
2022-12-11T00:56:45.379Z,101110.23
2022-12-11T00:59:15.586Z,101114.22
2022-12-11T01:01:45.371Z,101111.44
2022-12-11T01:04:15.486Z,101114.68
2022-12-11T01:06:45.634Z,101109.81
2022-12-11T01:09:25.454Z,101109.69
2022-12-11T01:11:45.353Z,101106.66
2022-12-11T01:14:15.504Z,101111.05
2022-12-11T01:16:45.677Z,101107.56
2022-12-11T01:19:15.514Z,101112.78
2022-12-11T01:21:45.617Z,101111.89
2022-12-11T01:26:45.389Z,101115.66
2022-12-11T01:29:16.333Z,101124.5
2022-12-11T01:31:45.391Z,101129.11
2022-12-11T01:34:15.867Z,101126.54
2022-12-11T01:36:45.503Z,101127.64
2022-12-11T01:39:15.307Z,101129.04
2022-12-11T01:41:45.921Z,101130.62999999999
2022-12-11T01:44:35.156Z,101128.52
2022-12-11T01:46:45.322Z,101135.39
2022-12-11T01:49:18.097Z,101136.23999999999
2022-12-11T01:51:50.726Z,101131.03
2022-12-11T01:54:18.529Z,101136.97
2022-12-11T01:56:47.347Z,101132.19
2022-12-11T01:59:20.374Z,101131.48
2022-12-11T02:01:49.363Z,101124.69
2022-12-11T02:04:15.610Z,101122.77
2022-12-11T02:06:47.975Z,101117.22
2022-12-11T02:09:18.185Z,101116.04999999999
2022-12-11T02:11:55.837Z,101115.83
2022-12-11T02:14:24.619Z,101118.19
2022-12-11T02:16:50.157Z,101117.46
2022-12-11T02:19:30.127Z,101116.97
2022-12-11T02:21:49.964Z,101115.09
2022-12-11T02:24:31.208Z,101110.05
2022-12-11T02:29:22.321Z,101109.72
2022-12-11T02:31:51.381Z,101108.56
2022-12-11T02:36:50.569Z,101103.81
2022-12-11T02:39:17.146Z,101101.86
2022-12-11T02:41:48.799Z,101101.78
2022-12-11T02:44:19.432Z,101107.34
2022-12-11T02:46:45.512Z,101107.92
2022-12-11T02:49:16.660Z,101105.98
2022-12-11T02:51:45.925Z,101103.52
2022-12-11T02:54:20.416Z,101099.59
2022-12-11T02:59:21.615Z,101099.34
2022-12-11T03:01:46.265Z,101099.69
2022-12-11T03:04:15.618Z,101088.53
2022-12-11T03:06:50.819Z,101088.61
2022-12-11T03:11:45.607Z,101081.87000000001
2022-12-11T03:14:15.459Z,101081.7
2022-12-11T03:24:20.780Z,101077.69
2022-12-11T03:26:56.531Z,101079.97
2022-12-11T03:29:19.477Z,101075.59
2022-12-11T03:31:53.601Z,101079.64
2022-12-11T03:34:18.924Z,101080.24
2022-12-11T03:39:21.227Z,101078.22
2022-12-11T03:41:49.517Z,101071.11
2022-12-11T03:44:16.411Z,101072.02
2022-12-11T03:46:46.794Z,101071.83
2022-12-11T03:51:48.500Z,101067.88
2022-12-11T03:56:47.397Z,101066.41
2022-12-11T03:59:15.378Z,101065.25
2022-12-11T04:06:46.042Z,101059.27
2022-12-11T04:09:15.482Z,101058.03
2022-12-11T04:11:45.377Z,101061.3
2022-12-11T04:14:25.165Z,101063.78
2022-12-11T04:16:45.357Z,101066.81999999999
2022-12-11T04:19:25.517Z,101070.4
2022-12-11T04:24:15.502Z,101073.91
2022-12-11T04:26:46.748Z,101073.56
2022-12-11T04:29:15.478Z,101076.68
2022-12-11T04:31:45.466Z,101074.78
2022-12-11T04:34:15.713Z,101076.78
2022-12-11T04:36:45.488Z,101076.12000000001
2022-12-11T04:39:15.681Z,101074.98000000001
2022-12-11T04:41:45.823Z,101074.51
2022-12-11T04:44:15.414Z,101075.92
2022-12-11T04:46:45.501Z,101075.9
2022-12-11T04:51:45.392Z,101063.42
2022-12-11T04:54:15.693Z,101061.94
2022-12-11T04:56:45.562Z,101063.03
2022-12-11T04:59:15.524Z,101055.78
2022-12-11T05:01:45.457Z,101051.39
2022-12-11T05:04:15.409Z,101049.23999999999
2022-12-11T05:06:45.910Z,101051.59
2022-12-11T05:11:45.557Z,101055.42
2022-12-11T05:14:15.507Z,101059.38
2022-12-11T05:16:45.555Z,101061.06
2022-12-11T05:19:15.735Z,101051.23
2022-12-11T05:21:45.395Z,101049.72
2022-12-11T05:24:15.551Z,101046.04000000001
2022-12-11T05:26:45.438Z,101043.83
2022-12-11T05:29:15.449Z,101040.32999999999
2022-12-11T05:31:45.663Z,101038.31
2022-12-11T05:34:15.442Z,101030.44
2022-12-11T05:36:45.440Z,101028.08
2022-12-11T05:39:15.500Z,101031.66
2022-12-11T05:41:45.403Z,101030.62999999999
2022-12-11T05:44:15.516Z,101028.09
2022-12-11T05:46:45.697Z,101023.27
2022-12-11T05:49:19.637Z,101021.12
2022-12-11T05:51:45.392Z,101018.61
2022-12-11T05:56:48.596Z,101022.89
2022-12-11T05:59:15.555Z,101015.7
2022-12-11T06:01:46.017Z,101021.23
2022-12-11T06:04:15.582Z,101021.28
2022-12-11T06:06:45.543Z,101022.14
2022-12-11T06:09:16.654Z,101026.2
2022-12-11T06:14:15.518Z,101027.03
2022-12-11T06:21:47.898Z,101026.15
2022-12-11T06:29:15.495Z,101020.65
2022-12-11T06:31:45.491Z,101022.74
2022-12-11T06:34:15.474Z,101024.08
2022-12-11T06:39:15.669Z,101024.97
2022-12-11T06:41:45.771Z,101029.51000000001
2022-12-11T06:46:45.773Z,101033.74
2022-12-11T06:49:15.411Z,101032.48
2022-12-11T06:51:45.410Z,101031.23000000001
2022-12-11T06:54:15.627Z,101029.53
2022-12-11T06:56:45.418Z,101028.49
2022-12-11T06:59:15.701Z,101027.18
2022-12-11T07:04:15.437Z,101039.25
2022-12-11T07:06:46.497Z,101042.04
2022-12-11T07:09:15.788Z,101046.37
2022-12-11T07:11:45.739Z,101046.08
2022-12-11T07:14:16.128Z,101050.37
2022-12-11T07:19:15.898Z,101056.91
2022-12-11T07:21:46.044Z,101063.76000000001
2022-12-11T07:24:15.747Z,101063.59
2022-12-11T07:26:45.453Z,101063.83
2022-12-11T07:29:15.538Z,101067.55
2022-12-11T07:31:45.674Z,101068.76999999999
2022-12-11T07:34:16.174Z,101067.44
2022-12-11T07:36:45.752Z,101070.0
2022-12-11T07:39:15.435Z,101071.34999999999
2022-12-11T07:41:46.062Z,101067.33
2022-12-11T07:44:15.639Z,101069.86
2022-12-11T07:46:45.723Z,101065.08
2022-12-11T07:49:15.787Z,101066.08
2022-12-11T07:51:45.572Z,101058.11
2022-12-11T07:54:16.117Z,101058.76
2022-12-11T07:56:52.786Z,101053.85
2022-12-11T07:59:15.959Z,101053.94
2022-12-11T08:01:45.873Z,101055.36
2022-12-11T08:04:15.600Z,101053.86
2022-12-11T08:06:45.509Z,101055.94
2022-12-11T08:09:21.044Z,101056.42
2022-12-11T08:11:47.001Z,101057.86
2022-12-11T08:14:15.554Z,101057.64
2022-12-11T08:16:46.040Z,101060.11
2022-12-11T08:21:45.876Z,101064.98
2022-12-11T08:26:46.776Z,101062.71
2022-12-11T08:29:15.642Z,101064.78
2022-12-11T08:31:45.539Z,101066.57
2022-12-11T08:36:45.479Z,101066.02
2022-12-11T08:39:15.894Z,101063.36
2022-12-11T08:44:16.938Z,101066.83
2022-12-11T08:46:45.793Z,101071.98
2022-12-11T08:49:15.525Z,101068.76999999999
2022-12-11T08:51:45.699Z,101067.04999999999
2022-12-11T08:54:15.508Z,101062.05
2022-12-11T08:56:45.460Z,101061.94
2022-12-11T08:59:17.591Z,101062.61
2022-12-11T09:01:45.604Z,101063.22
2022-12-11T09:04:15.506Z,101055.84
2022-12-11T09:06:45.488Z,101053.53
2022-12-11T09:09:15.547Z,101052.51
2022-12-11T09:11:45.889Z,101055.0
2022-12-11T09:14:15.483Z,101052.53
2022-12-11T09:16:45.566Z,101047.43999999999
2022-12-11T09:19:16.731Z,101042.65000000001
2022-12-11T09:21:45.460Z,101041.35
2022-12-11T09:24:15.795Z,101039.12
2022-12-11T09:26:46.350Z,101037.26000000001
2022-12-11T09:29:15.543Z,101033.91
2022-12-11T09:31:45.866Z,101031.62
2022-12-11T09:34:15.507Z,101034.33
2022-12-11T09:36:46.448Z,101037.78
2022-12-11T09:39:17.242Z,101041.13
2022-12-11T09:41:51.785Z,101038.64
2022-12-11T09:44:20.280Z,101036.27
2022-12-11T09:49:26.028Z,101036.25
2022-12-11T09:51:49.732Z,101039.14
2022-12-11T09:54:15.688Z,101038.58
2022-12-11T09:56:51.925Z,101036.44
2022-12-11T09:59:26.863Z,101039.98
2022-12-11T10:01:53.890Z,101037.45
2022-12-11T10:04:30.226Z,101036.13
2022-12-11T10:06:53.043Z,101035.67
2022-12-11T10:09:21.192Z,101036.8
2022-12-11T10:12:00.345Z,101035.24
2022-12-11T10:14:24.544Z,101031.12999999999
2022-12-11T10:16:49.899Z,101034.66
2022-12-11T10:19:18.687Z,101030.16
2022-12-11T10:21:47.014Z,101035.69
2022-12-11T10:24:42.168Z,101038.37
2022-12-11T10:26:46.060Z,101033.48
2022-12-11T10:29:15.725Z,101035.83
2022-12-11T10:31:51.598Z,101033.98
2022-12-11T10:34:25.555Z,101030.8
2022-12-11T10:36:46.011Z,101029.66
2022-12-11T10:39:18.548Z,101033.6
2022-12-11T10:41:48.480Z,101030.8
2022-12-11T10:44:17.850Z,101034.06
2022-12-11T10:46:47.474Z,101034.33
2022-12-11T10:51:45.689Z,101031.75
2022-12-11T10:54:29.065Z,101027.89
2022-12-11T10:56:47.617Z,101026.34000000001
2022-12-11T10:59:24.213Z,101023.28
2022-12-11T11:01:45.888Z,101019.78
2022-12-11T11:04:22.613Z,101025.73
2022-12-11T11:06:45.664Z,101028.44
2022-12-11T11:09:28.402Z,101022.58
2022-12-11T11:14:17.213Z,101018.89
2022-12-11T11:16:47.237Z,101018.47
2022-12-11T11:19:20.367Z,101016.69
2022-12-11T11:21:50.298Z,101015.83
2022-12-11T11:24:26.939Z,101009.27
2022-12-11T11:27:12.385Z,101016.13
2022-12-11T11:29:26.930Z,101012.45
2022-12-11T11:31:45.671Z,101019.8
2022-12-11T11:34:21.274Z,101015.62
2022-12-11T11:36:55.988Z,101010.82
2022-12-11T11:39:22.367Z,101005.12999999999
2022-12-11T11:44:24.692Z,101001.34000000001
2022-12-11T11:46:52.634Z,100994.2
2022-12-11T11:49:22.780Z,100994.3
2022-12-11T11:51:49.857Z,100992.21
2022-12-11T11:54:28.095Z,100990.29000000001
2022-12-11T11:56:45.949Z,100991.89
2022-12-11T11:59:22.664Z,100995.20999999999
2022-12-11T12:04:15.572Z,100996.22
2022-12-11T12:07:05.760Z,101001.34000000001
2022-12-11T12:09:28.799Z,101001.37
2022-12-11T12:11:52.407Z,100997.45
2022-12-11T12:14:50.984Z,100992.21
2022-12-11T12:16:58.765Z,100992.6
2022-12-11T12:19:29.818Z,100990.31
2022-12-11T12:21:50.439Z,100991.97
2022-12-11T12:24:29.024Z,100992.83
2022-12-11T12:26:51.463Z,100997.05
2022-12-11T12:29:26.045Z,100995.70999999999
2022-12-11T12:32:00.730Z,100994.34
2022-12-11T12:34:27.494Z,100995.12
2022-12-11T12:36:51.299Z,100995.01000000001
2022-12-11T12:39:26.346Z,100994.31
2022-12-11T12:41:54.267Z,100990.67
2022-12-11T12:44:18.278Z,100990.94
2022-12-11T12:46:54.261Z,100991.76999999999
2022-12-11T12:49:22.716Z,100993.19
2022-12-11T12:51:46.813Z,100992.69
2022-12-11T12:54:18.228Z,100986.73999999999
2022-12-11T12:56:47.606Z,100986.85
2022-12-11T12:59:20.475Z,100992.03
2022-12-11T13:01:47.245Z,100993.76999999999
2022-12-11T13:04:54.601Z,100996.20999999999
2022-12-11T13:06:46.532Z,100993.73000000001
2022-12-11T13:09:17.706Z,100991.69
2022-12-11T13:11:49.337Z,100992.88
2022-12-11T13:14:27.778Z,100991.79000000001
2022-12-11T13:16:47.610Z,100994.97
2022-12-11T13:19:25.960Z,100994.76
2022-12-11T13:21:55.016Z,100998.19
2022-12-11T13:24:25.435Z,101003.09999999999
2022-12-11T13:26:46.856Z,101000.05
2022-12-11T13:29:28.011Z,101000.51
2022-12-11T13:31:56.562Z,100996.81
2022-12-11T13:34:20.216Z,100991.2
2022-12-11T13:36:48.408Z,100987.17
2022-12-11T13:39:18.640Z,100988.42
2022-12-11T13:41:48.065Z,100988.26000000001
2022-12-11T13:44:22.208Z,100988.67
2022-12-11T13:46:45.623Z,100991.44
2022-12-11T13:49:22.303Z,100990.54
2022-12-11T13:51:51.443Z,100991.93000000001
2022-12-11T13:54:17.764Z,100998.85
2022-12-11T13:56:57.268Z,101001.56
2022-12-11T13:59:26.425Z,101008.62
2022-12-11T14:01:45.805Z,101014.87
2022-12-11T14:06:45.927Z,101015.84
2022-12-11T14:09:19.239Z,101016.3
2022-12-11T14:11:46.350Z,101019.67
2022-12-11T14:14:19.780Z,101020.36
2022-12-11T14:16:48.322Z,101018.28
2022-12-11T14:19:18.599Z,101015.85
2022-12-11T14:24:15.973Z,101019.7
2022-12-11T14:29:25.265Z,101026.68
2022-12-11T14:31:46.812Z,101033.01
2022-12-11T14:34:21.101Z,101027.51
2022-12-11T14:36:47.002Z,101029.0
2022-12-11T14:39:19.649Z,101027.55
2022-12-11T14:41:51.128Z,101028.41
2022-12-11T14:44:19.836Z,101025.28
2022-12-11T14:46:49.275Z,101020.78
2022-12-11T14:54:28.929Z,101026.12000000001
2022-12-11T14:56:46.959Z,101026.76
2022-12-11T14:59:25.660Z,101024.97
2022-12-11T15:01:57.664Z,101022.88
2022-12-11T15:04:22.799Z,101021.53
2022-12-11T15:09:18.682Z,101025.3
2022-12-11T15:11:47.998Z,101021.44
2022-12-11T15:16:47.413Z,101024.97
2022-12-11T15:19:20.520Z,101034.34
2022-12-11T15:21:45.783Z,101032.76
2022-12-11T15:26:47.863Z,101028.59
2022-12-11T15:29:26.013Z,101032.31
2022-12-11T15:31:45.691Z,101033.87
2022-12-11T15:34:21.024Z,101034.52
2022-12-11T15:36:45.624Z,101038.37
2022-12-11T15:39:15.549Z,101039.18
2022-12-11T15:41:45.766Z,101039.20000000001
2022-12-11T15:46:45.895Z,101042.4
2022-12-11T15:49:15.564Z,101040.75
2022-12-11T15:51:45.761Z,101036.1
2022-12-11T15:54:16.307Z,101032.36
2022-12-11T15:56:45.923Z,101035.92
2022-12-11T15:59:16.122Z,101036.86
2022-12-11T16:01:45.641Z,101043.92
2022-12-11T16:09:15.664Z,101041.85
2022-12-11T16:11:45.622Z,101041.09
2022-12-11T16:14:15.567Z,101046.22
2022-12-11T16:16:45.733Z,101042.46
2022-12-11T16:19:15.576Z,101042.88
2022-12-11T16:24:15.954Z,101040.3
2022-12-11T16:26:45.600Z,101042.42
2022-12-11T16:29:15.649Z,101044.96
2022-12-11T16:31:45.760Z,101044.34999999999
2022-12-11T16:36:45.819Z,101044.37000000001
2022-12-11T16:41:45.721Z,101041.93000000001
2022-12-11T16:46:45.961Z,101035.14
2022-12-11T16:51:46.043Z,101035.51999999999
2022-12-11T16:54:16.807Z,101031.83
2022-12-11T16:56:45.597Z,101026.28
2022-12-11T16:59:15.604Z,101033.26
2022-12-11T17:01:45.990Z,101036.37999999999
2022-12-11T17:04:16.186Z,101038.48000000001
2022-12-11T17:06:45.850Z,101036.73999999999
2022-12-11T17:09:15.875Z,101036.83
2022-12-11T17:14:15.709Z,101041.21
2022-12-11T17:29:16.092Z,101039.14
2022-12-11T17:31:46.023Z,101038.95
2022-12-11T17:34:15.606Z,101039.72
2022-12-11T17:36:45.705Z,101041.14
2022-12-11T17:41:46.013Z,101049.06
2022-12-11T17:44:15.581Z,101047.88
2022-12-11T17:46:45.817Z,101046.04000000001
2022-12-11T17:49:15.608Z,101042.13
2022-12-11T17:51:46.083Z,101041.24
2022-12-11T17:54:15.804Z,101037.49
2022-12-11T17:56:45.635Z,101034.12
2022-12-11T17:59:16.261Z,101036.58
2022-12-11T18:01:45.755Z,101038.0
2022-12-11T18:04:15.913Z,101040.05
2022-12-11T18:06:45.688Z,101050.56
2022-12-11T18:09:15.856Z,101052.13
2022-12-11T18:11:45.640Z,101052.31
2022-12-11T18:14:17.433Z,101048.95
2022-12-11T18:16:45.917Z,101048.75
2022-12-11T18:19:16.208Z,101047.85
2022-12-11T18:21:46.150Z,101051.37
2022-12-11T18:24:15.772Z,101057.62
2022-12-11T18:26:46.365Z,101057.23000000001
2022-12-11T18:29:15.646Z,101058.4
2022-12-11T18:31:45.983Z,101058.98
2022-12-11T18:34:15.853Z,101057.11
2022-12-11T18:36:45.808Z,101055.92
2022-12-11T18:39:15.680Z,101056.91
2022-12-11T18:41:58.268Z,101058.43
2022-12-11T18:46:45.894Z,101057.18000000001
2022-12-11T18:49:16.156Z,101059.19
2022-12-11T18:51:45.612Z,101058.2
2022-12-11T18:54:15.644Z,101054.13
2022-12-11T18:56:45.896Z,101051.31
2022-12-11T18:59:15.840Z,101051.51
2022-12-11T19:06:46.128Z,101049.63
2022-12-11T19:09:15.651Z,101049.08
2022-12-11T19:11:46.680Z,101048.61
2022-12-11T19:16:45.801Z,101045.24
2022-12-11T19:21:46.905Z,101044.24
2022-12-11T19:24:17.845Z,101042.58
2022-12-11T19:29:20.313Z,101042.38
2022-12-11T19:31:45.746Z,101041.76
2022-12-11T19:34:16.102Z,101045.48
2022-12-11T19:46:46.323Z,101054.96
2022-12-11T19:51:45.772Z,101053.36
2022-12-11T19:54:17.172Z,101056.53
2022-12-11T19:56:47.343Z,101054.68
2022-12-11T19:59:16.819Z,101054.89
2022-12-11T20:04:17.132Z,101056.47
2022-12-11T20:09:17.163Z,101059.56
2022-12-11T20:14:20.663Z,101059.20999999999
2022-12-11T20:17:10.146Z,101063.59
2022-12-11T20:19:16.045Z,101063.72
2022-12-11T20:24:16.017Z,101067.83
2022-12-11T20:31:45.915Z,101060.03
2022-12-11T20:34:15.722Z,101058.56
2022-12-11T20:36:46.845Z,101057.76
2022-12-11T20:39:15.662Z,101059.45
2022-12-11T20:41:45.628Z,101060.83
2022-12-11T20:44:16.116Z,101063.7
2022-12-11T20:46:45.662Z,101068.02
2022-12-11T20:49:15.922Z,101064.9
2022-12-11T20:51:45.792Z,101066.45999999999
2022-12-11T20:54:15.658Z,101066.79000000001
2022-12-11T20:56:46.871Z,101069.06
2022-12-11T21:01:46.350Z,101070.48999999999
2022-12-11T21:04:15.800Z,101071.37
2022-12-11T21:06:45.949Z,101072.39
2022-12-11T21:09:16.770Z,101074.01999999999
2022-12-11T21:11:45.918Z,101075.27
2022-12-11T21:14:17.884Z,101078.19
2022-12-11T21:24:18.913Z,101090.84
2022-12-11T21:26:47.482Z,101089.08
2022-12-11T21:29:16.872Z,101086.78
2022-12-11T21:31:46.167Z,101082.73000000001
2022-12-11T21:34:19.386Z,101082.74
2022-12-11T21:36:46.445Z,101083.08
2022-12-11T21:39:15.766Z,101087.67
2022-12-11T21:41:45.666Z,101087.3
2022-12-11T21:46:45.704Z,101085.89
2022-12-11T21:49:15.885Z,101086.73999999999
2022-12-11T21:51:47.413Z,101090.23
2022-12-11T21:54:17.623Z,101090.45
2022-12-11T21:56:46.106Z,101087.57
2022-12-11T21:59:16.096Z,101089.11
2022-12-11T22:01:46.420Z,101089.48000000001
2022-12-11T22:04:16.054Z,101090.08
2022-12-11T22:06:46.276Z,101090.95999999999
2022-12-11T22:09:16.836Z,101089.28
2022-12-11T22:11:46.718Z,101095.42
2022-12-11T22:14:16.877Z,101098.55
2022-12-11T22:16:45.953Z,101097.97
2022-12-11T22:19:15.783Z,101096.88
2022-12-11T22:21:45.678Z,101097.55
2022-12-11T22:24:16.024Z,101099.01999999999
2022-12-11T22:26:45.837Z,101093.69
2022-12-11T22:29:15.855Z,101096.33
2022-12-11T22:31:45.673Z,101097.62
2022-12-11T22:34:15.946Z,101098.28
2022-12-11T22:36:46.076Z,101094.48
2022-12-11T22:39:15.696Z,101091.69
2022-12-11T22:41:46.116Z,101090.42
2022-12-11T22:44:18.056Z,101092.54
2022-12-11T22:46:50.013Z,101092.11
2022-12-11T22:49:15.976Z,101090.84
2022-12-11T22:51:45.729Z,101092.6
2022-12-11T22:54:16.147Z,101092.46
2022-12-11T22:56:45.675Z,101090.75
2022-12-11T22:59:16.055Z,101092.98999999999
2022-12-11T23:01:47.562Z,101093.17
2022-12-11T23:04:15.796Z,101107.72
2022-12-11T23:06:45.733Z,101104.78
2022-12-11T23:09:16.289Z,101107.14
2022-12-11T23:11:45.666Z,101106.92
2022-12-11T23:14:16.804Z,101101.72
2022-12-11T23:16:45.759Z,101103.68999999999
2022-12-11T23:19:22.195Z,101107.75
2022-12-11T23:21:45.711Z,101110.05
2022-12-11T23:24:15.658Z,101109.55
2022-12-11T23:26:47.217Z,101113.64
2022-12-11T23:29:15.679Z,101116.86
2022-12-11T23:31:46.168Z,101119.06
2022-12-11T23:34:15.706Z,101119.64
2022-12-11T23:36:45.719Z,101120.9
2022-12-11T23:39:15.912Z,101120.9
2022-12-11T23:41:45.795Z,101123.13
2022-12-11T23:44:16.027Z,101126.54
2022-12-11T23:46:45.703Z,101127.51
2022-12-11T23:49:15.922Z,101131.89
2022-12-11T23:51:45.702Z,101129.3
2022-12-11T23:54:15.745Z,101132.34
2022-12-11T23:56:45.820Z,101131.23000000001
2022-12-11T23:59:16.772Z,101128.08
